Latest Weather Observations for Centre Island

IDD60801

Issued at 6:03 pm CST Friday 19 December 2014 (issued every 30 minutes, with the page automatically refreshed every 10 minutes)

About weather observations | Map of weather stations | Latest weather observations for NT | Other Formats
Station Details ID: 014703 Name: CENTRE ISLAND Lat: -15.74 Lon: 136.82 Height: 12.2 m
Data from the previous 72 hours. | See also: Recent months at Centre Island
Date/Time
CST
Temp
°C
App
Temp
°C
Dew
Point
Rel
Hum
%
Delta-T
°C
Wind Press
QNH
hPa
Press
MSL
hPa
Rain
since 9 am
mm
Dir
 
Spd
km/h
Gust
km/h
Spd
kts
Gust
kts
19/06:00pm 33.4 36.4 24.0 58 6.6 N 15 20 8 11 1007.3 1007.2 0.0
19/05:30pm 34.1 36.0 23.5 54 7.4 N 19 24 10 13 1006.8 1006.7 0.0
19/05:00pm 34.9 38.0 24.2 53 7.5 N 15 20 8 11 1006.6 1006.5 0.0
19/04:30pm 35.2 38.1 24.5 54 7.6 N 17 20 9 11 1006.3 1006.2 0.0
19/04:00pm 35.3 38.5 25.5 57 7.0 NNE 19 26 10 14 1006.5 1006.4 0.0
19/03:30pm 35.0 38.2 25.8 59 6.6 NNE 20 26 11 14 1006.8 1006.7 0.0
19/03:00pm 35.4 39.0 25.6 57 7.0 NNE 17 26 9 14 1007.1 1007.0 0.0
19/02:30pm 35.2 38.3 25.7 58 6.8 NE 20 26 11 14 1007.8 1007.7 0.0
19/02:00pm 34.7 37.5 25.8 60 6.4 NE 22 28 12 15 1008.3 1008.2 0.0
19/01:30pm 34.7 38.3 26.1 61 6.2 NE 19 24 10 13 1008.7 1008.6 0.0
19/01:00pm 34.7 38.6 26.1 61 6.2 NE 17 24 9 13 1009.5 1009.4 0.0
19/12:30pm 34.5 37.7 25.9 61 6.2 NE 20 26 11 14 1010.0 1009.9 0.0
19/12:00pm 34.6 37.9 25.7 60 6.4 NE 19 24 10 13 1010.3 1010.2 0.0
19/11:30am 34.0 37.5 25.4 61 6.1 NE 17 20 9 11 1010.6 1010.5 0.0
19/11:00am 34.6 38.8 26.0 61 6.2 NE 15 19 8 10 1011.0 1010.9 0.0
19/10:30am 33.8 37.5 25.2 60 6.1 NE 15 19 8 10 1011.3 1011.2 0.0
19/10:00am 33.9 37.7 25.9 63 5.7 ENE 17 22 9 12 1011.4 1011.3 0.0
19/09:30am 33.6 38.0 25.6 63 5.7 NE 13 19 7 10 1011.6 1011.5 0.0
19/09:00am 33.2 37.5 24.9 61 5.9 NE 11 15 6 8 1011.5 1011.4 0.0
19/08:30am 32.7 37.1 25.0 64 5.4 NE 11 15 6 8 1011.4 1011.3 0.0
19/08:00am 31.6 36.5 25.2 69 4.5 N 9 15 5 8 1011.1 1011.0 0.0
19/07:30am 31.2 36.0 25.1 70 4.3 N 9 13 5 7 1010.8 1010.7 0.0
19/07:00am 30.8 36.2 25.4 73 3.8 NNW 7 11 4 6 1010.6 1010.5 0.0
19/06:30am 30.1 34.6 25.8 78 3.1 N 13 15 7 8 1010.2 1010.1 0.0
19/06:00am 29.5 34.4 25.3 78 3.0 N 9 15 5 8 1009.6 1009.5 0.0
19/05:30am 29.4 34.3 25.2 78 3.0 N 9 13 5 7 1009.3 1009.2 0.0
19/05:00am 29.3 34.5 25.7 81 2.5 N 9 13 5 7 1009.0 1008.9 0.0
19/04:30am 29.6 34.0 25.6 79 2.8 N 13 19 7 10 1008.7 1008.6 0.0
19/04:00am 29.7 33.8 25.7 79 2.8 N 15 19 8 10 1008.6 1008.5 0.0
19/03:30am 29.8 34.0 25.3 77 3.2 N 13 19 7 10 1008.4 1008.3 0.0
19/03:00am 30.0 34.4 25.7 78 3.1 NNE 13 17 7 9 1008.7 1008.6 0.0
19/02:30am 30.0 34.7 25.5 77 3.2 N 11 15 6 8 1008.7 1008.6 0.0
19/02:00am 29.9 34.6 25.0 75 3.4 N 9 13 5 7 1008.7 1008.6 0.0
19/01:30am 30.0 34.7 24.9 74 3.6 N 9 13 5 7 1008.4 1008.3 0.0
19/01:00am 30.2 34.7 24.6 72 3.9 NNE 9 13 5 7 1008.5 1008.4 0.0
19/12:30am 30.4 34.5 24.5 70 4.1 NE 11 17 6 9 1008.8 1008.7 0.0
19/12:00am 30.5 33.9 24.6 70 4.1 NE 15 20 8 11 1009.0 1008.9 0.0
 
Date/Time
CST
Temp
°C
App
Temp
°C
Dew
Point
Rel
Hum
%
Delta-T
°C
Wind Press
QNH
hPa
Press
MSL
hPa
Rain
since 9 am
mm
Dir
 
Spd
km/h
Gust
km/h
Spd
kts
Gust
kts
18/11:30pm 30.7 34.1 25.3 73 3.8 NE 17 20 9 11 1009.7 1009.6 0.0
18/11:00pm 30.6 34.2 25.0 72 3.9 NE 15 20 8 11 1009.5 1009.4 0.0
18/10:30pm 30.9 33.7 25.3 72 4.0 NNE 20 24 11 13 1009.1 1009.0 0.0
18/10:00pm 30.7 33.9 25.5 74 3.7 NNE 19 24 10 13 1008.5 1008.4 0.0
18/09:30pm 30.8 34.2 26.1 76 3.4 NNE 20 26 11 14 1008.5 1008.4 0.0
18/09:00pm 30.8 33.5 26.3 77 3.2 NNE 24 30 13 16 1008.1 1008.0 0.0
18/08:30pm 30.7 33.4 26.2 77 3.2 NNE 24 28 13 15 1007.6 1007.5 0.0
18/08:00pm 30.9 34.1 26.4 77 3.2 NNE 22 28 12 15 1007.6 1007.5 0.0
18/07:30pm 31.0 33.5 26.0 74 3.6 NNE 24 32 13 17 1007.1 1007.0 0.0
18/07:00pm 31.3 34.4 26.8 77 3.2 NNE 24 30 13 16 1007.0 1006.9 0.0
18/06:30pm 31.7 34.7 26.7 75 3.6 NNE 24 32 13 17 1006.7 1006.6 0.0
18/06:00pm 32.9 36.1 26.4 68 4.7 NNE 22 30 12 16 1006.0 1005.9 0.0
18/05:30pm 34.6 37.0 24.2 54 7.3 N 19 28 10 15 1005.8 1005.7 0.0
18/05:00pm 34.8 37.1 25.0 56 7.0 N 22 28 12 15 1005.9 1005.8 0.0
18/04:30pm 34.8 37.6 25.3 57 6.8 N 20 26 11 14 1006.1 1006.0 0.0
18/04:00pm 35.8 39.2 25.9 56 7.1 NNE 19 24 10 13 1006.3 1006.2 0.0
18/03:30pm 35.2 38.4 26.5 60 6.3 NNE 22 28 12 15 1006.7 1006.6 0.0
18/03:00pm 35.4 39.0 26.4 59 6.5 NNE 20 26 11 14 1006.9 1006.8 0.0
18/02:30pm 36.6 40.3 25.8 54 7.8 NNW 17 24 9 13 1007.4 1007.3 0.0
18/02:00pm 36.2 39.3 25.4 53 7.7 NNW 19 28 10 15 1007.8 1007.7 0.0
18/01:30pm 36.7 40.5 25.9 54 7.8 NNW 17 24 9 13 1008.1 1008.0 0.0
18/01:00pm 36.9 41.0 26.4 55 7.6 NNW 17 24 9 13 1008.4 1008.3 0.0
18/12:30pm 35.7 39.3 26.1 57 6.9 NNW 19 26 10 14 1008.9 1008.8 0.0
18/12:00pm 35.7 39.4 25.8 56 7.1 N 17 28 9 15 1009.1 1009.0 0.0
18/11:30am 35.7 40.0 26.1 57 6.9 NNW 15 24 8 13 1009.2 1009.1 0.0
18/11:00am 36.6 40.9 26.7 57 7.2 NNW 17 28 9 15 1009.4 1009.3 0.0
18/10:30am 35.7 39.8 26.4 58 6.7 NNW 17 24 9 13 1009.7 1009.6 0.0
18/10:00am 34.7 38.6 26.1 61 6.2 NNW 17 22 9 12 1009.5 1009.4 0.0
18/09:30am 33.9 37.8 26.1 63 5.6 NNW 17 26 9 14 1009.7 1009.6 0.0
18/09:00am 33.7 37.5 25.9 63 5.6 NNW 17 22 9 12 1009.4 1009.3 0.0
18/08:30am 33.2 37.4 26.5 68 4.8 N 17 26 9 14 1009.4 1009.3 0.0
18/08:00am 32.2 35.9 26.3 71 4.2 N 19 26 10 14 1009.3 1009.2 0.0
18/07:30am 31.5 35.0 26.3 74 3.7 NNW 20 28 11 15 1009.1 1009.0 0.0
18/07:00am 30.9 34.1 26.4 77 3.2 N 22 30 12 16 1008.7 1008.6 0.0
18/06:30am 30.5 34.3 26.7 80 2.7 N 20 30 11 16 1008.3 1008.2 0.0
18/06:00am 29.9 33.7 26.5 82 2.4 N 19 26 10 14 1007.9 1007.8 0.0
18/05:30am 29.8 33.2 26.2 81 2.6 N 20 28 11 15 1007.2 1007.1 0.0
18/05:00am 29.8 33.2 25.8 79 2.8 N 19 26 10 14 1006.8 1006.7 0.0
18/04:30am 29.8 33.1 25.1 76 3.3 N 17 24 9 13 1006.4 1006.3 0.0
18/04:00am 29.8 33.3 24.9 75 3.4 N 15 20 8 11 1006.4 1006.3 0.0
18/03:30am 29.7 32.8 24.8 75 3.4 N 17 20 9 11 1006.4 1006.3 0.0
18/03:00am 29.5 33.5 25.0 77 3.2 N 13 20 7 11 1006.3 1006.2 0.0
18/02:30am 29.6 33.0 25.3 77 3.0 N 17 22 9 12 1006.7 1006.6 0.0
18/02:00am 29.7 32.8 25.4 78 3.0 N 19 26 10 14 1006.9 1006.8 0.0
18/01:30am 29.6 32.9 25.1 77 3.2 NNW 17 24 9 13 1007.0 1006.9 0.0
18/01:00am 29.8 32.7 25.1 76 3.3 N 19 26 10 14 1007.3 1007.2 0.0
18/12:30am 30.1 33.3 25.8 78 3.1 N 20 28 11 15 1007.5 1007.4 0.0
18/12:00am 30.2 32.9 25.7 77 3.2 N 22 30 12 16 1007.9 1007.8 0.0
 
Date/Time
CST
Temp
°C
App
Temp
°C
Dew
Point
Rel
Hum
%
Delta-T
°C
Wind Press
QNH
hPa
Press
MSL
hPa
Rain
since 9 am
mm
Dir
 
Spd
km/h
Gust
km/h
Spd
kts
Gust
kts
17/11:30pm 30.4 32.2 25.5 75 3.5 NNE 26 35 14 19 1008.1 1008.0 0.0
17/11:00pm 30.4 32.9 25.9 77 3.2 NNE 24 33 13 18 1008.1 1008.0 0.0
17/10:30pm 30.6 32.0 25.4 74 3.7 NE 28 35 15 19 1008.1 1008.0 0.0
17/10:00pm 30.7 32.7 25.8 75 3.5 NE 26 33 14 18 1007.8 1007.7 0.0
17/09:30pm 30.5 32.1 25.1 73 3.8 NE 26 32 14 17 1007.6 1007.5 0.0
17/09:00pm 30.5 32.2 25.3 74 3.7 NE 26 33 14 18 1007.0 1006.9 0.0
17/08:30pm 30.5 33.0 25.3 74 3.7 NE 22 28 12 15 1006.6 1006.5 0.0
17/08:00pm 30.6 33.5 25.9 76 3.3 NE 22 28 12 15 1005.8 1005.7 0.0
17/07:30pm 30.5 33.7 25.8 76 3.3 NNE 20 28 11 15 1005.3 1005.2 0.0
17/07:00pm 30.7 34.3 26.4 78 3.1 NNE 20 28 11 15 1004.9 1004.8 0.0
17/06:30pm 31.1 34.5 26.1 75 3.6 NNE 20 28 11 15 1004.8 1004.7 0.0
17/06:00pm 31.9 34.7 25.2 67 4.7 NE 20 26 11 14 1004.7 1004.6 0.0
17/05:30pm 32.6 35.7 25.7 67 4.9 NE 20 26 11 14 1004.7 1004.6 0.0
17/05:00pm 33.0 36.3 26.0 66 5.0 NE 20 28 11 15 1004.5 1004.4 0.0
17/04:30pm 33.0 35.1 25.3 64 5.5 NE 24 30 13 16 1004.6 1004.5 0.0
17/04:00pm 33.7 36.9 25.9 63 5.6 NE 20 26 11 14 1004.9 1004.8 0.0
17/03:30pm 34.7 38.3 26.1 61 6.2 NNE 19 26 10 14 1004.9 1004.8 0.0
17/03:00pm 36.0 39.4 25.8 55 7.3 NNE 19 24 10 13 1005.1 1005.0 0.0
17/02:30pm 35.3 37.1 22.6 47 8.8 N 17 26 9 14 1005.5 1005.4 0.0
17/02:00pm 35.6 37.6 23.6 50 8.4 NNW 19 24 10 13 1005.9 1005.8 0.0
17/01:30pm 36.5 38.6 23.7 47 9.0 NNW 19 26 10 14 1006.3 1006.2 0.0
17/01:00pm 36.2 38.7 24.4 50 8.3 NNW 19 26 10 14 1006.5 1006.4 0.0
17/12:30pm 35.9 38.2 24.5 52 8.1 NNW 20 28 11 15 1006.8 1006.7 0.0
17/12:00pm 35.6 36.4 22.5 46 9.0 NNW 22 32 12 17 1007.2 1007.1 0.0
17/11:30am 36.5 37.4 21.5 41 10.3 NNW 19 30 10 16 1007.2 1007.1 0.0
17/11:00am 34.7 37.5 24.3 54 7.3 NNE 17 20 9 11 1007.6 1007.5 0.0
17/10:30am 35.6 39.5 25.5 56 7.2 N 15 22 8 12 1008.1 1008.0 0.0
17/10:00am 34.3 37.8 24.8 57 6.7 N 15 20 8 11 1008.4 1008.3 0.0
17/09:30am 33.7 37.1 24.0 57 6.8 N 13 19 7 10 1008.5 1008.4 0.0
17/09:00am 33.0 36.2 25.0 63 5.7 NNW 17 28 9 15 1008.5 1008.4 0.0
17/08:30am 31.8 34.3 24.7 66 5.0 NNW 20 32 11 17 1008.3 1008.2 0.0
17/08:00am 31.4 34.1 24.8 68 4.6 N 19 28 10 15 1008.0 1007.9 0.0
17/07:30am 31.3 34.3 25.2 70 4.3 NNE 19 24 10 13 1007.7 1007.6 0.0
17/07:00am 30.5 33.0 24.4 70 4.3 N 19 28 10 15 1007.5 1007.4 0.0
17/06:30am 29.7 33.6 24.8 75 3.4 N 13 20 7 11 1007.3 1007.2 0.0
17/06:00am 28.9 32.7 24.7 78 2.9 N 13 19 7 10 1006.9 1006.8 0.0
17/05:30am 29.1 32.3 24.9 78 2.9 N 17 22 9 12 1006.4 1006.3 0.0
17/05:00am 28.9 32.4 24.9 79 2.8 N 15 19 8 10 1006.0 1005.9 0.0
17/04:30am 28.8 32.9 24.6 78 2.9 NNW 11 17 6 9 1005.6 1005.5 0.0
17/04:00am 28.8 33.3 24.6 78 2.9 NW 9 13 5 7 1005.4 1005.3 0.0
17/03:30am 29.1 32.8 24.6 76 3.1 NNW 13 17 7 9 1005.4 1005.3 0.0
17/03:00am 29.3 32.9 24.4 75 3.4 NNW 13 19 7 10 1005.5 1005.4 0.0
17/02:30am 29.4 32.7 24.5 75 3.4 N 15 20 8 11 1005.3 1005.2 0.0
17/02:00am 29.5 33.2 24.6 75 3.4 N 13 20 7 11 1005.3 1005.2 0.0
17/01:30am 29.8 32.7 24.4 73 3.8 N 17 24 9 13 1005.4 1005.3 0.0
17/01:00am 30.2 32.8 24.6 72 3.9 NNE 19 28 10 15 1005.8 1005.7 0.0
17/12:30am 30.4 32.6 24.8 72 3.9 NNE 22 28 12 15 1006.0 1005.9 0.0
17/12:00am 30.4 32.6 25.5 75 3.5 NNE 24 32 13 17 1006.0 1005.9 0.0
 
Date/Time
CST
Temp
°C
App
Temp
°C
Dew
Point
Rel
Hum
%
Delta-T
°C
Wind Press
QNH
hPa
Press
MSL
hPa
Rain
since 9 am
mm
Dir
 
Spd
km/h
Gust
km/h
Spd
kts
Gust
kts
16/11:30pm 30.6 31.9 24.7 71 4.1 NNE 26 33 14 18 1006.4 1006.3 0.0
16/11:00pm 30.7 32.8 25.3 73 3.8 NNE 24 33 13 18 1006.6 1006.5 0.0
16/10:30pm 30.8 32.9 25.4 73 3.8 NNE 24 32 13 17 1006.4 1006.3 0.0
16/10:00pm 30.7 32.0 25.3 73 3.8 NNE 28 35 15 19 1006.2 1006.1 0.0
16/09:30pm 30.8 32.2 25.4 73 3.8 NNE 28 35 15 19 1006.2 1006.1 0.0
16/09:00pm 30.7 32.5 26.0 76 3.4 NNE 28 33 15 18 1005.9 1005.8 0.0
16/08:30pm 30.8 33.4 26.1 76 3.4 NNE 24 33 13 18 1005.6 1005.5 0.0
16/08:00pm 30.9 33.0 25.9 74 3.6 NE 26 33 14 18 1005.4 1005.3 0.0
16/07:30pm 31.0 33.2 26.0 74 3.6 NE 26 33 14 18 1005.0 1004.9 0.0
16/07:00pm 31.1 33.3 26.1 75 3.6 NE 26 32 14 17 1004.8 1004.7 0.0
16/06:30pm 31.5 34.4 26.5 75 3.6 NE 24 32 13 17 1004.6 1004.5 0.0

Other Formats:

Comma delimited format used in spreadsheet applications
http://www.bom.gov.au/fwo/IDD60801/IDD60801.94248.axf

JavaScript Object Notation format (JSON) in row-major order
http://www.bom.gov.au/fwo/IDD60801/IDD60801.94248.json